Terminal Aerodrome Forecast
Issued by NWS

Home | Current Version | Previous Version | Text Only | Print | Product List | Glossary Off
Versions: 1 2 3 4 5 6 7 8 9 10 11 12 13

000
FTUS45 KGGW 201125
TAFGDV
TAF
KGDV 201125Z 2012/2112 26006KT P6SM SCT100
     FM202000 28007KT P6SM BKN090
     FM211100 28006KT P6SM OVC020=

USA.gov is the U.S. government's official web portal to all federal, state and local government web resources and services.